2019-06-17T11:10:10+02:00 GET /shop/termek/curver-gorgos-szemetes-muanyag-110l-sargafekete/1569942 HTTP/1.1
2019-06-17T11:26:27+02:00 GET /shop/termek/gardena-401820-classic-suhano-funyiro-400-basic-garancia/1593705 HTTP/1.1
2019-06-17T11:31:22+02:00 GET /shop/termek/levenhuk-skyline-base-100s/1704005 HTTP/1.1
2019-06-17T12:21:53+02:00 GET /shop/termek/delock-jack-toldo-arany-4cm-65360/240809 HTTP/1.1
2019-06-17T12:23:14+02:00 GET /shop/termek/bresser-hunter-824x50-ketszemes-tavcso/1691522 HTTP/1.1
2019-06-17T12:33:48+02:00 GET /shop/termek/bresser-national-geographic-3x25-ejjellato-egyszemes-tavcso/1691596 HTTP/1.1
2019-06-17T14:34:42+02:00 GET /shop/termek/2x3-ceiling-mount-upc2/1391623 HTTP/1.1
2019-06-17T14:52:14+02:00 GET /shop/termek/natec-230v-lohere-tapkabel-fekete-25m-nka0846/1553953 HTTP/1.1
2019-06-17T15:16:33+02:00 GET /shop/termek/gembird-nf03-usb-4-desktop-fan-fekete/1483031 HTTP/1.1
2019-06-17T15:53:46+02:00 GET /shop/termek/valueline-jack-rca-atalakito-fekete-20cm-vlap22250b02/1672779 HTTP/1.1
2019-06-17T16:29:16+02:00 GET /shop/termek/philips-gc673030-fastcare-compact-gozallomas-vasalofej/1688563 HTTP/1.1
2019-06-17T16:52:57+02:00 GET /shop/termek/intellinet-fiber-optic-lc-osszekoto-zold-3m-302754/1441858 HTTP/1.1
2019-06-18T15:27:08+02:00 GET /shop/termek/raidsonic-usb-utp-atalakito-fekete-10cm-ibac510/823930 HTTP/1.1
2019-06-18T20:03:48+02:00 GET /shop/termek/delock-sata-osszekoto-sarga-10cm-82464/207688 HTTP/1.1
2019-06-18T20:48:34+02:00 GET /shop/termek/karcher-13481110-wd-4-tobbfunkcios-porszivo-basic-garancia/1605695 HTTP/1.1
2019-06-18T21:12:19+02:00 GET /shop/termek/philips-hr210000-turmixgep-basic-garancia/1709834 HTTP/1.1
2019-06-18T21:23:58+02:00 GET /shop/termek/philips-hr210000-turmixgep-basic-garancia/1709834 HTTP/1.1
2019-06-18T21:58:34+02:00 GET /shop/termek/delock-micro-usb-atalakito-fekete-3cm-65474/524042 HTTP/1.1
2019-06-18T22:01:02+02:00 GET /shop/termek/g21-linea-onontozo-kaspo-76-cm-feher/1567974 HTTP/1.1
2019-06-18T22:07:18+02:00 GET /shop/termek/delock-usb-osszekoto-fekete-1m-83566/917770 HTTP/1.1
2019-06-18T22:18:18+02:00 GET /shop/termek/sencor-sda310-belteri-dvbt-antenna/1451676 HTTP/1.1
2019-06-18T23:01:22+02:00 GET /shop/termek/philips-hd482590-daily-collection-toaster-basic-garancia/1709038 HTTP/1.1
2019-06-19T00:06:56+02:00 GET /shop/termek/bosch-dfm064w50-serie-2-kihuzhato-paraelszivo-keszulek-szine-ezustmetal-60-cm-szeles/1604727 HTTP/1.1
2019-06-19T00:57:16+02:00 GET /shop/termek/logilink-utp-osszekoto-fekete-50cm-cq2023s/1081665 HTTP/1.1
2019-06-19T04:39:03+02:00 GET /shop/termek/bresser-spezial-zoomar-1236x70-ketszemes-tavcso/1711640 HTTP/1.1
2019-06-19T04:47:37+02:00 GET /shop/termek/bresser-national-geographic-8x42-wp-ketszemes-tavcso/1714548 HTTP/1.1
2019-06-19T05:04:34+02:00 GET /shop/termek/bresser-tgyuru-nikon-m42-kamerakhoz/1692797 HTTP/1.1
2019-06-19T11:11:16+02:00 GET /shop/termek/g21-digitalis-szef-380x300x300mm/1557776 HTTP/1.1
2019-06-19T11:37:17+02:00 GET /shop/termek/valueline-230v-iec-tapkabel-feher-3m-vlep10000w30/1558786 HTTP/1.1
2019-06-19T12:12:14+02:00 GET /shop/termek/delock-usb-osszekoto-fekete-1m-83566/917770 HTTP/1.1
2019-06-19T14:50:31+02:00 GET /shop/termek/logilink-utp-osszekoto-piros-1m-cq2034s/1081623 HTTP/1.1
2019-06-19T16:47:38+02:00 GET /shop/termek/philips-gc214240-easyspeed-plus-gozolos-vasalo-basic-garancia/1709509 HTTP/1.1
2019-06-20T11:31:10+02:00 GET /shop/termek/levenhuk-n38-ng-elokeszitett-targylemezkeszlet/1692617 HTTP/1.1
2019-06-20T11:31:19+02:00 GET /shop/termek/levenhuk-a10-okostelefon-adapter/1695718 HTTP/1.1
2019-06-20T11:39:23+02:00 GET /shop/termek/bresser-73277-szines-kijelzos-kivetitos-ora-fekete/1714709 HTTP/1.1
2019-06-20T11:31:10+02:00 GET /shop/termek/levenhuk-n38-ng-elokeszitett-targylemezkeszlet/1692617 HTTP/1.1
2019-06-20T11:31:19+02:00 GET /shop/termek/levenhuk-a10-okostelefon-adapter/1695718 HTTP/1.1
2019-06-20T11:39:23+02:00 GET /shop/termek/bresser-73277-szines-kijelzos-kivetitos-ora-fekete/1714709 HTTP/1.1
2019-06-20T17:16:47+02:00 GET /shop/termek/philips-hd239500-sandwich-maker-basic-garancia/1709441 HTTP/1.1
2019-06-20T20:30:08+02:00 GET /shop/termek/bosch-ppq7a6b90-edzettuveg-gazfozolap/1600443 HTTP/1.1
2019-06-20T22:26:31+02:00 GET /shop/termek/curver-gorgos-szemetes-muanyag-110l-sargafekete/1569942 HTTP/1.1
2019-06-21T12:25:36+02:00 GET /shop/termek/philips-hr264240-viva-collection-promix-rudmixer/1689535 HTTP/1.1
2019-06-21T16:58:06+02:00 GET /shop/termek/victoria-curver-csipke-hatasu-kosar-mokka/1258999 HTTP/1.1
2019-06-21T19:22:52+02:00 GET /shop/termek/curver-pedalos-szemetes-femhatasu-5-l/1083270 HTTP/1.1
2019-06-21T21:52:10+02:00 GET /shop/termek/curver-gorgos-szemetes-muanyag-110l-sargafekete/1569942 HTTP/1.1
2019-06-22T03:53:50+02:00 GET /shop/termek/fieldmann-fdg-500032r-32-darabos-gola-keszlet/1467483 HTTP/1.1
2019-06-22T07:38:24+02:00 GET /shop/termek/philips-fc857709-performer-active-porzsakos-porszivo/1461217 HTTP/1.1
2019-06-22T08:07:22+02:00 GET /shop/termek/curver-gorgos-szemetes-muanyag-110l-sargafekete/1569942 HTTP/1.1
2019-06-22T08:14:02+02:00 GET /shop/termek/philips-bhd006-drycare-essential-hairdryer/1458132 HTTP/1.1
2019-06-22T08:29:37+02:00 GET /shop/termek/karcher-16331690-wv-classic-ablaktisztito/1534430 HTTP/1.1
2019-06-22T08:33:17+02:00 GET /shop/termek/levenhuk-broadway-325n-szinhazi-latcso-ledlampaval-ellatott-ezust-szinu-lornyon/1692083 HTTP/1.1
2019-06-22T08:37:45+02:00 GET /shop/termek/levenhuk-wise-plus-10x42-egyszemlencses-tavcso/1692500 HTTP/1.1
2019-06-22T08:43:08+02:00 GET /shop/termek/bresser-national-geographic-3001200x-mikroszkop/1692193 HTTP/1.1
2019-06-22T08:44:10+02:00 GET /shop/termek/bresser-topas-10x25-egyszemes-tavcso-zold/1691829 HTTP/1.1
2019-06-22T08:56:11+02:00 GET /shop/termek/karcher-13246330-k-5-premium-full-control-plus-home-magasnyomasu-moso/1563746 HTTP/1.1
2019-06-22T11:01:00+02:00 GET /shop/termek/karcher-11981250-vc-3-porszivo/1563147 HTTP/1.1
2019-06-22T03:53:50+02:00 GET /shop/termek/fieldmann-fdg-500032r-32-darabos-gola-keszlet/1467483 HTTP/1.1
2019-06-24T08:37:16+02:00 GET /shop/termek/levenhuk-1st-mikroszkop/1691877 HTTP/1.1
2019-06-24T08:37:16+02:00 GET /shop/termek/levenhuk-1st-mikroszkop/1691877 HTTP/1.1
2019-06-24T08:41:09+02:00 GET /shop/termek/levenhuk-nelson-8x30-ketszemes-tavcso/1692342 HTTP/1.1
2019-06-24T08:41:22+02:00 GET /shop/termek/levenhuk-blaze-60f-base-figyelotavcso/1691961 HTTP/1.1
2019-06-24T09:56:48+02:00 GET /shop/termek/qoltec-battery-for-dewalt-de9037-de9071-12v/1424670 HTTP/1.1
2019-06-24T11:37:05+02:00 GET /shop/termek/curver-pedalos-szemetes-femhatasu-5-l/1083270 HTTP/1.1
2019-06-24T12:24:25+02:00 GET /shop/termek/philips-hr186420-gyumolcscentrifuga/1428305 HTTP/1.1
2019-06-24T13:02:31+02:00 GET /shop/termek/karcher-11981250-vc-3-porszivo/1563147 HTTP/1.1
2019-06-24T15:51:45+02:00 GET /shop/termek/curver-pedalos-szemetes-femhatasu-5-l/1083270 HTTP/1.1
2019-06-24T16:23:54+02:00 GET /shop/termek/bosch-mum4427-konyhai-robotgep/1166693 HTTP/1.1
2019-06-24T16:54:43+02:00 GET /shop/termek/whitenergy-dell-latitude-d500-03971/299984 HTTP/1.1
2019-06-24T19:51:30+02:00 GET /shop/termek/whitenergy-battery-dell-vostro-v131-h7xw1/1095907 HTTP/1.1
2019-06-24T21:10:42+02:00 GET /shop/termek/curver-gorgos-szemetes-muanyag-110l-sargafekete/1569942 HTTP/1.1
2019-06-25T03:46:46+02:00 GET /shop/termek/curver-pedalos-szemetes-femhatasu-5-l/1083270 HTTP/1.1
2019-06-25T04:14:00+02:00 GET /shop/termek/curver-pedalos-szemetes-femhatasu-5-l/1083270 HTTP/1.1
2019-06-25T07:11:42+02:00 GET /shop/termek/neff-c17gr01n0-n-70-beepitheto-mikrohullamu-suto/1648609 HTTP/1.1
2019-06-25T08:21:47+02:00 GET /shop/termek/levenhuk-broadway-325n-szinhazi-latcso-ledlampaval-ellatott-feher-szinu-lornyon/1692086 HTTP/1.1
2019-06-25T08:24:16+02:00 GET /shop/termek/levenhuk-sherman-base-8x32-ketszemes-tavcso/1692402 HTTP/1.1
2019-06-25T11:21:24+02:00 GET /shop/termek/philips-s110004-elektromos-borotva/1453771 HTTP/1.1
2019-06-25T12:41:55+02:00 GET /shop/termek/curver-gorgos-szemetes-muanyag-110l-kekfekete/1640387 HTTP/1.1
2019-06-25T14:10:08+02:00 GET /shop/termek/electrolux-ems21400s-mikrohullamu-suto/1166698 HTTP/1.1
2019-06-25T14:44:00+02:00 GET /shop/termek/curver-pedalos-szemetes-femhatasu-5-l/1083270 HTTP/1.1
2019-06-25T14:44:27+02:00 GET /shop/termek/bosch-hba573eb0-serie-4-beepitheto-suto-szurke/1639718 HTTP/1.1
2019-06-25T14:10:08+02:00 GET /shop/termek/electrolux-ems21400s-mikrohullamu-suto/1166698 HTTP/1.1
2019-06-25T14:44:00+02:00 GET /shop/termek/curver-pedalos-szemetes-femhatasu-5-l/1083270 HTTP/1.1
2019-06-25T14:44:27+02:00 GET /shop/termek/bosch-hba573eb0-serie-4-beepitheto-suto-szurke/1639718 HTTP/1.1
2019-06-25T18:32:37+02:00 GET /shop/termek/curver-gorgos-szemetes-muanyag-110l-sargafekete/1569942 HTTP/1.1
2019-06-25T19:10:19+02:00 GET /shop/termek/curver-gorgos-szemetes-muanyag-110l-sargafekete/1569942 HTTP/1.1
2019-06-26T00:57:57+02:00 GET /shop/termek/philips-gc02410-ironcare-vasalohoz-valo-vizszuro-basic-garancia/1709527 HTTP/1.1
2019-06-26T05:24:29+02:00 GET /shop/termek/philips-qp252030-oneblade-borotva/1661637 HTTP/1.1
2019-06-26T08:50:25+02:00 GET /shop/termek/bosch-pif651fc1e-indukcios-fozolap/1600432 HTTP/1.1
2019-06-26T09:07:00+02:00 GET /shop/termek/philips-hd441920-grillsuto/1390118 HTTP/1.1
2019-06-26T10:07:02+02:00 GET /shop/termek/philips-s111004-shaver-series-1000-szaraz-elektromos-borotva-basic-garancia/1709235 HTTP/1.1
2019-06-26T10:18:16+02:00 GET /shop/termek/philips-scf88101-4-az-1ben-egeszseges-bebietelkeszito/1712839 HTTP/1.1
2019-06-26T11:43:35+02:00 GET /shop/termek/bosch-sms46kw05e4-serie-4-supersilence-mosogatogep-60-cm-szabadonallo-keszulek-feher/1582140 HTTP/1.1
2019-06-26T12:23:17+02:00 GET /shop/termek/zanussi-zev36340xb-beepitheto-keramia-fozolap/1452290 HTTP/1.1
2019-06-26T13:43:10+02:00 GET /shop/termek/whitenergy-dell-latitude-d620-04805/299988 HTTP/1.1
2019-06-26T13:48:06+02:00 GET /shop/termek/bosch-tat6a003-comfortline-kenyerpirito/1537009 HTTP/1.1
2019-06-26T23:42:31+02:00 GET /shop/termek/bosch-muz45sv1-kinyomos-sutemeny-elotet/1466143 HTTP/1.1
2019-06-26T23:53:26+02:00 GET /shop/termek/karcher-15120500-sc-2-easyfix-goztisztito/1638763 HTTP/1.1
2019-06-27T01:26:48+02:00 GET /shop/termek/cata-02859394-szenszuro-aktiv/1655354 HTTP/1.1
2019-06-27T02:48:01+02:00 GET /shop/termek/bosch-bgc3u330-relyy-y-porszivo/1466215 HTTP/1.1
2019-06-27T05:45:34+02:00 GET /shop/termek/bosch-hba5570s0-serie-6-beepitheto-suto-nemesacel/1639701 HTTP/1.1
2019-06-27T07:17:49+02:00 GET /shop/termek/epson-tmt20ii-003-szurke-c31cd52007/1570606 HTTP/1.1
2019-06-27T11:15:19+02:00 GET /shop/termek/fieldmann-fzd-5015e-elektromos-kerti-aprito/1564765 HTTP/1.1
2019-06-27T13:28:51+02:00 GET /shop/termek/philips-fc807601-diamondflex-szivofej-kemenypadlohoz/1528714 HTTP/1.1
2019-06-27T14:05:19+02:00 GET /shop/termek/philips-fc857509-performer-active-vacuum-cleaner-with-bag/1461220 HTTP/1.1
2019-06-27T19:28:56+02:00 GET /shop/termek/philips-scf87502-avent-kombinalt-parolo-es-turmixgep-4-az-1ben/1562701 HTTP/1.1
2019-06-27T22:43:44+02:00 GET /shop/termek/bosch-mum55761-konyhai-robotgep/1697705 HTTP/1.1
2019-06-28T00:41:41+02:00 GET /shop/termek/wolf-garten-ewm-ablaklemoso/1594612 HTTP/1.1
2019-06-28T01:11:51+02:00 GET /shop/termek/bosch-muz45ag1-asian-vegetable-disc-stainless-steel-basic-garancia/1648589 HTTP/1.1
2019-06-28T01:13:55+02:00 GET /shop/termek/electrolux-eus8x2db-porzsakos-porszivo/1600883 HTTP/1.1
2019-06-28T01:20:40+02:00 GET /shop/termek/electrolux-edb6130-vasalo/1490768 HTTP/1.1
2019-06-28T07:27:55+02:00 GET /shop/termek/electrolux-eus8x2db-porzsakos-porszivo/1600883 HTTP/1.1